createdAt,value
2023-03-06T00:00:21.160Z,6.28
2023-03-06T00:02:52.145Z,6.28
2023-03-06T00:05:21.137Z,6.27
2023-03-06T00:07:49.296Z,6.25
2023-03-06T00:10:19.153Z,6.22
2023-03-06T00:12:47.493Z,6.18
2023-03-06T00:15:18.578Z,6.14
2023-03-06T00:17:47.820Z,6.11
2023-03-06T00:20:17.997Z,6.10
2023-03-06T00:22:45.721Z,6.10
2023-03-06T00:25:15.291Z,6.07
2023-03-06T00:27:43.384Z,6.00
2023-03-06T00:30:14.098Z,5.92
2023-03-06T00:32:42.410Z,5.89
2023-03-06T00:35:11.268Z,5.88
2023-03-06T00:37:41.426Z,5.91
2023-03-06T00:40:15.174Z,5.95
2023-03-06T00:42:43.355Z,5.97
2023-03-06T00:45:12.423Z,6.01
2023-03-06T00:47:40.486Z,6.01
2023-03-06T00:50:10.212Z,5.99
2023-03-06T00:52:38.284Z,5.96
2023-03-06T00:55:08.923Z,5.94
2023-03-06T00:57:37.184Z,5.93
2023-03-06T01:00:06.953Z,5.93
2023-03-06T01:02:35.143Z,5.92
2023-03-06T01:05:03.374Z,5.93
2023-03-06T01:07:34.083Z,5.91
2023-03-06T01:10:02.060Z,5.91
2023-03-06T01:12:31.526Z,5.93
2023-03-06T01:14:59.669Z,5.90
2023-03-06T01:17:27.776Z,5.91
2023-03-06T01:19:55.775Z,5.91
2023-03-06T01:22:24.252Z,5.88
2023-03-06T01:24:52.251Z,5.87
2023-03-06T01:27:20.278Z,5.84
2023-03-06T01:29:49.732Z,5.78
2023-03-06T01:32:17.738Z,5.73
2023-03-06T01:34:45.747Z,5.65
2023-03-06T01:37:13.913Z,5.62
2023-03-06T01:39:41.983Z,5.55
2023-03-06T01:42:10.293Z,5.52
2023-03-06T01:44:38.380Z,5.51
2023-03-06T01:47:07.826Z,5.51
2023-03-06T01:49:39.233Z,5.53
2023-03-06T01:52:10.228Z,5.49
2023-03-06T01:54:43.176Z,5.47
2023-03-06T01:57:14.707Z,5.49
2023-03-06T01:59:43.967Z,5.51
2023-03-06T02:02:15.018Z,5.56
2023-03-06T02:04:44.302Z,5.63
2023-03-06T02:07:13.068Z,5.68
2023-03-06T02:09:41.314Z,5.69
2023-03-06T02:12:12.277Z,5.74
2023-03-06T02:14:41.346Z,5.73
2023-03-06T02:17:12.042Z,5.73
2023-03-06T02:19:53.149Z,5.75
2023-03-06T02:22:21.943Z,5.76
2023-03-06T02:24:55.472Z,5.76
2023-03-06T02:27:26.386Z,5.78
2023-03-06T02:29:54.437Z,5.79
2023-03-06T02:32:22.536Z,5.81
2023-03-06T02:34:59.111Z,5.80
2023-03-06T02:37:29.314Z,5.81
2023-03-06T02:40:04.115Z,5.80
2023-03-06T02:42:33.526Z,5.79
2023-03-06T02:45:03.554Z,5.73
2023-03-06T02:47:31.635Z,5.72
2023-03-06T02:50:00.196Z,5.70
2023-03-06T02:52:28.205Z,5.71
2023-03-06T02:54:56.199Z,5.70
2023-03-06T02:57:24.240Z,5.69
2023-03-06T02:59:53.864Z,5.65
2023-03-06T03:02:22.175Z,5.63
2023-03-06T03:04:50.296Z,5.64
2023-03-06T03:07:18.513Z,5.63
2023-03-06T03:09:46.549Z,5.62
2023-03-06T03:12:14.616Z,5.62
2023-03-06T03:14:42.624Z,5.62
2023-03-06T03:17:11.965Z,5.64
2023-03-06T03:19:39.939Z,5.63
2023-03-06T03:22:08.318Z,5.64
2023-03-06T03:24:36.519Z,5.66
2023-03-06T03:27:04.819Z,5.67
2023-03-06T03:29:32.900Z,5.72
2023-03-06T03:32:01.165Z,5.74
2023-03-06T03:34:33.075Z,5.73
2023-03-06T03:37:01.159Z,5.72
2023-03-06T03:39:29.312Z,5.71
2023-03-06T03:41:57.348Z,5.68
2023-03-06T03:44:25.384Z,5.67
2023-03-06T03:46:53.443Z,5.62
2023-03-06T03:49:21.542Z,5.55
2023-03-06T03:51:51.012Z,5.47
2023-03-06T03:54:19.164Z,5.40
2023-03-06T03:56:47.374Z,5.36
2023-03-06T03:59:16.744Z,5.29
2023-03-06T04:01:45.994Z,5.17
2023-03-06T04:04:14.083Z,5.11
2023-03-06T04:06:42.605Z,5.08
2023-03-06T04:09:12.023Z,5.08
2023-03-06T04:11:40.085Z,5.07
2023-03-06T04:14:11.487Z,5.07
2023-03-06T04:16:39.500Z,5.04
2023-03-06T04:19:07.539Z,5.02
2023-03-06T04:21:35.563Z,4.99
2023-03-06T04:24:03.618Z,4.94
2023-03-06T04:26:33.072Z,4.85
2023-03-06T04:29:01.093Z,4.79
2023-03-06T04:31:29.229Z,4.71
2023-03-06T04:33:57.332Z,4.65
2023-03-06T04:36:29.619Z,4.56
2023-03-06T04:38:58.248Z,4.52
2023-03-06T04:41:27.650Z,4.49
2023-03-06T04:43:59.622Z,4.45
2023-03-06T04:46:29.234Z,4.45
2023-03-06T04:48:57.315Z,4.44
2023-03-06T04:51:25.452Z,4.43
2023-03-06T04:53:53.492Z,4.41
2023-03-06T04:56:21.498Z,4.38
2023-03-06T04:58:49.544Z,4.36
2023-03-06T05:01:19.009Z,4.34
2023-03-06T05:03:47.070Z,4.31
2023-03-06T05:06:15.116Z,4.32
2023-03-06T05:08:43.389Z,4.33
2023-03-06T05:11:11.389Z,4.32
2023-03-06T05:13:39.446Z,4.33
2023-03-06T05:16:09.008Z,4.31
2023-03-06T05:18:38.859Z,4.30
2023-03-06T05:21:07.328Z,4.28
2023-03-06T05:23:38.545Z,4.28
2023-03-06T05:26:09.247Z,4.34
2023-03-06T05:28:38.375Z,4.41
2023-03-06T05:31:07.450Z,4.48
2023-03-06T05:33:36.304Z,4.50
2023-03-06T05:36:06.480Z,4.50
2023-03-06T05:38:34.199Z,4.43
2023-03-06T05:41:02.202Z,4.34
2023-03-06T05:43:30.192Z,4.23
2023-03-06T05:46:05.554Z,4.14
2023-03-06T05:48:34.348Z,4.09
2023-03-06T05:51:03.646Z,4.03
2023-03-06T05:53:33.852Z,3.99
2023-03-06T05:56:03.946Z,3.94
2023-03-06T05:58:33.479Z,3.92
2023-03-06T06:01:01.857Z,3.91
2023-03-06T06:03:29.932Z,3.94
2023-03-06T06:05:57.971Z,4.02
2023-03-06T06:08:26.238Z,4.05
2023-03-06T06:10:55.636Z,4.03
2023-03-06T06:13:23.748Z,4.02
2023-03-06T06:15:52.117Z,3.97
2023-03-06T06:18:20.146Z,3.91
2023-03-06T06:20:48.277Z,3.87
2023-03-06T06:23:16.681Z,3.86
2023-03-06T06:25:44.708Z,3.88
2023-03-06T06:28:14.110Z,3.87
2023-03-06T06:30:42.161Z,3.84
2023-03-06T06:33:10.189Z,3.83
2023-03-06T06:35:38.310Z,3.83
2023-03-06T06:38:06.348Z,3.81
2023-03-06T06:40:34.410Z,3.81
2023-03-06T06:43:02.458Z,3.79
2023-03-06T06:45:31.856Z,3.76
2023-03-06T06:48:00.053Z,3.73
2023-03-06T06:50:28.085Z,3.72
2023-03-06T06:52:56.142Z,3.70
2023-03-06T06:55:24.251Z,3.69
2023-03-06T06:57:54.926Z,3.68
2023-03-06T07:00:24.005Z,3.66
2023-03-06T07:02:53.368Z,3.64
2023-03-06T07:05:22.179Z,3.63
2023-03-06T07:07:51.455Z,3.65
2023-03-06T07:10:21.021Z,3.64
2023-03-06T07:12:49.445Z,3.66
2023-03-06T07:15:19.143Z,3.68
2023-03-06T07:17:49.569Z,3.69
2023-03-06T07:20:20.514Z,3.71
2023-03-06T07:22:51.606Z,3.76
2023-03-06T07:25:22.604Z,3.81
2023-03-06T07:27:54.517Z,3.85
2023-03-06T07:30:23.476Z,3.90
2023-03-06T07:32:54.836Z,3.97
2023-03-06T07:35:24.992Z,4.04
2023-03-06T07:37:52.987Z,4.12
2023-03-06T07:40:21.877Z,4.20
2023-03-06T07:42:50.018Z,4.24
2023-03-06T07:45:18.316Z,4.32
2023-03-06T07:47:46.866Z,4.37
2023-03-06T07:50:15.114Z,4.44
2023-03-06T07:52:44.505Z,4.52
2023-03-06T07:55:13.553Z,4.58
2023-03-06T07:57:41.854Z,4.64
2023-03-06T08:00:13.798Z,4.68
2023-03-06T08:02:43.279Z,4.71
2023-03-06T08:05:15.147Z,4.75
2023-03-06T08:07:45.317Z,4.80
2023-03-06T08:10:14.703Z,4.84
2023-03-06T08:12:42.992Z,4.88
2023-03-06T08:15:12.493Z,4.92
2023-03-06T08:17:40.973Z,4.96
2023-03-06T08:20:11.509Z,5.00
2023-03-06T08:22:40.593Z,5.06
2023-03-06T08:25:11.669Z,5.11
2023-03-06T08:27:41.155Z,5.19
2023-03-06T08:30:10.743Z,5.24
2023-03-06T08:32:39.349Z,5.28
2023-03-06T08:35:08.463Z,5.33
2023-03-06T08:37:36.985Z,5.35
2023-03-06T08:40:05.640Z,5.44
2023-03-06T08:42:35.260Z,5.57
2023-03-06T08:45:03.430Z,5.66
2023-03-06T08:47:34.199Z,5.77
2023-03-06T08:50:02.534Z,5.89
2023-03-06T08:52:30.697Z,6.00
2023-03-06T08:55:03.475Z,6.10
2023-03-06T08:57:31.662Z,6.16
2023-03-06T09:00:01.131Z,6.14
2023-03-06T09:02:29.305Z,6.14
2023-03-06T09:05:01.391Z,6.15
2023-03-06T09:07:30.712Z,6.20
2023-03-06T09:09:59.624Z,6.28
2023-03-06T09:12:29.258Z,6.39
2023-03-06T09:15:00.249Z,6.53
2023-03-06T09:17:29.972Z,6.62
2023-03-06T09:19:58.005Z,6.71
2023-03-06T09:22:26.084Z,6.81
2023-03-06T09:24:57.795Z,6.96
2023-03-06T09:27:27.777Z,7.01
2023-03-06T09:29:55.858Z,7.11
2023-03-06T09:32:27.461Z,7.16
2023-03-06T09:34:55.647Z,7.30
2023-03-06T09:37:24.985Z,7.53
2023-03-06T09:39:53.126Z,7.65
2023-03-06T09:42:25.706Z,7.72
2023-03-06T09:44:59.615Z,7.74
2023-03-06T09:47:46.949Z,7.82
2023-03-06T09:50:25.169Z,7.88
2023-03-06T09:53:16.363Z,7.98
2023-03-06T09:55:50.227Z,7.97
2023-03-06T09:58:22.419Z,7.97
2023-03-06T10:00:58.702Z,7.92
2023-03-06T10:03:32.663Z,7.91
2023-03-06T10:07:16.092Z,8.00
2023-03-06T10:09:54.402Z,8.17
2023-03-06T10:12:27.082Z,8.32
2023-03-06T10:15:04.170Z,8.36
2023-03-06T10:17:42.313Z,8.45
2023-03-06T10:20:26.009Z,8.48
2023-03-06T10:23:06.824Z,8.48
2023-03-06T10:25:41.636Z,8.54
2023-03-06T10:28:18.268Z,8.46
2023-03-06T10:30:58.425Z,8.37
2023-03-06T10:33:32.950Z,8.34
2023-03-06T10:36:06.718Z,8.30
2023-03-06T10:44:50.209Z,7.86
2023-03-06T10:47:44.216Z,7.91
2023-03-06T10:50:44.700Z,7.90
2023-03-06T10:53:35.802Z,7.86
2023-03-06T10:56:15.572Z,7.78
2023-03-06T10:59:15.369Z,7.65
2023-03-06T11:01:59.046Z,7.65
2023-03-06T11:05:11.082Z,7.62
2023-03-06T11:08:09.434Z,7.62
2023-03-06T11:10:45.867Z,7.53
2023-03-06T11:13:37.559Z,7.44
2023-03-06T11:19:24.354Z,7.51
2023-03-06T11:22:06.103Z,7.65
2023-03-06T11:24:43.442Z,7.76
2023-03-06T11:27:25.123Z,7.96
2023-03-06T11:29:56.408Z,8.09
2023-03-06T11:32:29.134Z,8.29
2023-03-06T11:35:01.310Z,8.42
2023-03-06T11:37:44.372Z,8.62
2023-03-06T11:40:19.449Z,8.61
2023-03-06T11:42:57.999Z,8.56
2023-03-06T11:45:32.235Z,8.49
2023-03-06T11:48:11.464Z,8.47
2023-03-06T11:50:43.750Z,8.46
2023-03-06T11:53:16.139Z,8.53
2023-03-06T11:56:33.242Z,8.56
2023-03-06T11:59:45.883Z,8.68
2023-03-06T12:06:04.098Z,8.55
2023-03-06T12:08:53.774Z,8.52
2023-03-06T12:11:46.817Z,8.58
2023-03-06T12:14:45.203Z,8.57
2023-03-06T12:17:37.787Z,8.49
2023-03-06T12:20:50.518Z,8.59
2023-03-06T12:27:21.614Z,8.57
2023-03-06T12:30:10.685Z,8.54
2023-03-06T12:32:57.784Z,8.45
2023-03-06T12:36:19.906Z,8.38
2023-03-06T12:39:11.751Z,8.24
2023-03-06T12:41:49.616Z,7.91
2023-03-06T12:45:06.142Z,7.60
2023-03-06T12:47:49.670Z,7.43
2023-03-06T12:50:30.313Z,7.34
2023-03-06T12:53:07.782Z,7.29
2023-03-06T12:55:41.963Z,7.28
2023-03-06T12:58:36.161Z,7.44
2023-03-06T13:01:10.639Z,7.53
2023-03-06T13:04:03.265Z,7.58
2023-03-06T13:06:55.099Z,7.48
2023-03-06T13:09:53.896Z,7.44
2023-03-06T13:12:56.192Z,7.29
2023-03-06T13:15:50.672Z,7.15
2023-03-06T13:19:03.818Z,7.06
2023-03-06T13:22:17.643Z,7.07
2023-03-06T13:29:08.156Z,7.32
2023-03-06T13:32:08.876Z,7.31
2023-03-06T13:34:39.429Z,7.30
2023-03-06T13:37:40.464Z,7.19
2023-03-06T13:40:16.437Z,7.16
2023-03-06T13:43:05.036Z,7.06
2023-03-06T13:45:42.059Z,7.10
2023-03-06T13:48:45.146Z,7.05
2023-03-06T13:51:25.658Z,7.04
2023-03-06T13:54:22.085Z,6.99
2023-03-06T13:57:24.334Z,6.99
2023-03-06T14:00:25.564Z,7.02
2023-03-06T14:03:40.481Z,7.05
2023-03-06T14:07:17.887Z,7.06
2023-03-06T14:10:38.996Z,7.23
2023-03-06T14:13:19.643Z,7.27
2023-03-06T14:16:50.914Z,7.33
2023-03-06T14:19:29.708Z,7.44
2023-03-06T14:22:07.401Z,7.53
2023-03-06T14:25:04.458Z,7.61
2023-03-06T14:28:12.517Z,7.62
2023-03-06T14:30:55.010Z,7.53
2023-03-06T14:33:31.190Z,7.53
2023-03-06T14:36:02.660Z,7.57
2023-03-06T14:38:35.851Z,7.51
2023-03-06T14:41:06.382Z,7.44
2023-03-06T14:43:36.301Z,7.32
2023-03-06T14:46:07.004Z,7.22
2023-03-06T14:48:41.875Z,7.16
2023-03-06T14:51:18.425Z,7.05
2023-03-06T14:53:48.718Z,7.07
2023-03-06T14:56:18.180Z,7.07
2023-03-06T14:58:55.418Z,7.06
2023-03-06T15:01:31.170Z,7.14
2023-03-06T15:04:01.750Z,7.01
2023-03-06T15:06:36.205Z,6.81
2023-03-06T15:09:10.381Z,6.71
2023-03-06T15:11:56.647Z,6.63
2023-03-06T15:14:33.390Z,6.68
2023-03-06T15:21:36.499Z,6.39
2023-03-06T15:24:33.942Z,6.39
2023-03-06T15:27:04.375Z,6.42
2023-03-06T15:29:37.729Z,6.48
2023-03-06T15:32:17.934Z,6.57
2023-03-06T15:34:46.167Z,6.61
2023-03-06T15:37:28.736Z,6.73
2023-03-06T15:40:09.609Z,6.82
2023-03-06T15:42:38.360Z,6.75
2023-03-06T15:45:20.299Z,6.72
2023-03-06T15:47:50.360Z,6.73
2023-03-06T15:50:20.663Z,6.71
2023-03-06T15:52:50.324Z,6.67
2023-03-06T15:55:20.597Z,6.64
2023-03-06T15:57:52.597Z,6.54
2023-03-06T16:00:28.200Z,6.57
2023-03-06T16:02:57.370Z,6.55
2023-03-06T16:05:27.923Z,6.48
2023-03-06T16:08:04.348Z,6.34
2023-03-06T16:10:37.138Z,6.27
2023-03-06T16:14:28.298Z,6.18
2023-03-06T16:17:09.104Z,6.05
2023-03-06T16:23:01.682Z,5.69
2023-03-06T16:25:42.007Z,5.67
2023-03-06T16:34:39.878Z,5.64
2023-03-06T16:37:10.436Z,5.56
2023-03-06T16:39:38.545Z,5.50
2023-03-06T16:42:06.945Z,5.52
2023-03-06T16:44:35.289Z,5.50
2023-03-06T16:47:04.351Z,5.47
2023-03-06T16:49:33.574Z,5.51
2023-03-06T16:52:05.107Z,5.48
2023-03-06T16:54:33.301Z,5.50
2023-03-06T16:57:01.413Z,5.42
2023-03-06T16:59:29.815Z,5.34
2023-03-06T17:01:58.125Z,5.35
2023-03-06T17:04:26.296Z,5.31
2023-03-06T17:06:54.721Z,5.27
2023-03-06T17:09:24.398Z,5.22
2023-03-06T17:11:52.548Z,5.17
2023-03-06T17:14:20.813Z,5.16
2023-03-06T17:16:48.956Z,5.14
2023-03-06T17:19:17.033Z,5.14
2023-03-06T17:22:46.650Z,5.12
2023-03-06T17:26:12.694Z,5.11
2023-03-06T17:28:52.810Z,4.91
2023-03-06T17:31:44.049Z,4.89
2023-03-06T17:34:19.332Z,4.80
2023-03-06T17:36:55.742Z,4.68
2023-03-06T17:39:24.492Z,4.61
2023-03-06T17:41:54.080Z,4.60
2023-03-06T17:44:22.578Z,4.62
2023-03-06T17:46:51.313Z,4.64
2023-03-06T17:49:22.401Z,4.65
2023-03-06T17:51:50.845Z,4.69
2023-03-06T17:54:19.331Z,4.74
2023-03-06T17:56:54.791Z,4.72
2023-03-06T17:59:23.368Z,4.71
2023-03-06T18:01:54.111Z,4.72
2023-03-06T18:04:22.273Z,4.74
2023-03-06T18:07:13.603Z,4.66
2023-03-06T18:09:45.443Z,4.63
2023-03-06T18:12:20.277Z,4.57
2023-03-06T18:14:56.289Z,4.53
2023-03-06T18:17:59.431Z,4.51
2023-03-06T18:20:29.981Z,4.49
2023-03-06T18:23:09.299Z,4.46
2023-03-06T18:25:47.780Z,4.42
2023-03-06T18:28:23.446Z,4.36
2023-03-06T18:30:51.642Z,4.39
2023-03-06T18:33:20.329Z,4.34
2023-03-06T18:35:53.358Z,4.30
2023-03-06T18:41:12.435Z,4.30
2023-03-06T18:43:42.843Z,4.31
2023-03-06T18:46:11.701Z,4.31
2023-03-06T18:48:40.052Z,4.29
2023-03-06T18:51:15.033Z,4.28
2023-03-06T18:53:48.834Z,4.21
2023-03-06T18:56:57.497Z,4.18
2023-03-06T18:59:29.588Z,4.16
2023-03-06T19:01:59.407Z,4.07
2023-03-06T19:04:36.560Z,4.06
2023-03-06T19:07:06.554Z,4.02
2023-03-06T19:09:41.248Z,3.96
2023-03-06T19:12:15.350Z,3.92
2023-03-06T19:14:46.774Z,3.83
2023-03-06T19:17:14.965Z,3.78
2023-03-06T19:19:52.606Z,3.71
2023-03-06T19:22:34.825Z,3.65
2023-03-06T19:25:05.490Z,3.56
2023-03-06T19:27:38.037Z,3.50
2023-03-06T19:30:18.790Z,3.43
2023-03-06T19:32:48.046Z,3.42
2023-03-06T19:35:16.372Z,3.44
2023-03-06T19:37:44.819Z,3.43
2023-03-06T19:40:13.772Z,3.45
2023-03-06T19:42:41.989Z,3.45
2023-03-06T19:45:12.734Z,3.48
2023-03-06T19:47:40.987Z,3.50
2023-03-06T19:50:10.885Z,3.54
2023-03-06T19:52:39.675Z,3.57
2023-03-06T19:55:09.839Z,3.57
2023-03-06T19:57:37.812Z,3.60
2023-03-06T20:00:25.757Z,3.61
2023-03-06T20:02:55.053Z,3.64
2023-03-06T20:05:37.459Z,3.67
2023-03-06T20:08:06.056Z,3.68
2023-03-06T20:10:46.534Z,3.68
2023-03-06T20:13:15.000Z,3.65
2023-03-06T20:15:44.721Z,3.64
2023-03-06T20:18:15.790Z,3.57
2023-03-06T20:20:44.184Z,3.55
2023-03-06T20:23:34.703Z,3.53
2023-03-06T20:26:15.089Z,3.48
2023-03-06T20:28:46.363Z,3.48
2023-03-06T20:31:18.774Z,3.43
2023-03-06T20:33:51.169Z,3.40
2023-03-06T20:36:21.921Z,3.39
2023-03-06T20:39:03.824Z,3.41
2023-03-06T20:41:33.556Z,3.39
2023-03-06T20:44:03.453Z,3.42
2023-03-06T20:46:33.871Z,3.40
2023-03-06T20:49:02.688Z,3.41
2023-03-06T20:51:33.194Z,3.44
2023-03-06T20:54:02.708Z,3.44
2023-03-06T20:56:33.142Z,3.44
2023-03-06T20:59:02.026Z,3.47
2023-03-06T21:01:33.546Z,3.42
2023-03-06T21:04:05.437Z,3.41
2023-03-06T21:06:34.395Z,3.42
2023-03-06T21:09:03.883Z,3.40
2023-03-06T21:11:32.333Z,3.41
2023-03-06T21:14:01.061Z,3.39
2023-03-06T21:16:30.437Z,3.35
2023-03-06T21:19:02.008Z,3.35
2023-03-06T21:21:32.972Z,3.36
2023-03-06T21:24:01.891Z,3.31
2023-03-06T21:26:33.937Z,3.31
2023-03-06T21:29:02.954Z,3.30
2023-03-06T21:31:33.568Z,3.29
2023-03-06T21:34:05.042Z,3.28
2023-03-06T21:36:33.596Z,3.26
2023-03-06T21:39:02.354Z,3.24
2023-03-06T21:41:32.482Z,3.22
2023-03-06T21:44:01.305Z,3.23
2023-03-06T21:46:29.778Z,3.17
2023-03-06T21:48:58.758Z,3.12
2023-03-06T21:51:29.384Z,3.14
2023-03-06T21:53:57.793Z,3.10
2023-03-06T21:56:28.570Z,3.06
2023-03-06T21:58:58.416Z,3.07
2023-03-06T22:01:29.045Z,3.05
2023-03-06T22:03:58.972Z,3.07
2023-03-06T22:06:32.769Z,3.03
2023-03-06T22:09:02.550Z,3.01
2023-03-06T22:11:34.590Z,2.99
2023-03-06T22:14:03.152Z,3.01
2023-03-06T22:16:31.936Z,2.97
2023-03-06T22:19:00.843Z,2.94
2023-03-06T22:21:29.143Z,2.94
2023-03-06T22:23:59.926Z,2.90
2023-03-06T22:26:29.062Z,2.86
2023-03-06T22:28:57.764Z,2.87
2023-03-06T22:31:28.592Z,2.85
2023-03-06T22:33:59.871Z,2.82
2023-03-06T22:36:30.429Z,2.82
2023-03-06T22:39:02.182Z,2.80
2023-03-06T22:41:30.534Z,2.78
2023-03-06T22:43:59.828Z,2.81
2023-03-06T22:46:28.437Z,2.79
2023-03-06T22:48:57.736Z,2.82
2023-03-06T22:51:26.302Z,2.81
2023-03-06T22:53:54.698Z,2.83
2023-03-06T22:56:24.719Z,2.81
2023-03-06T22:58:52.998Z,2.79
2023-03-06T23:01:23.527Z,2.78
2023-03-06T23:03:54.657Z,2.78
2023-03-06T23:06:25.177Z,2.76
2023-03-06T23:08:55.404Z,2.76
2023-03-06T23:11:27.915Z,2.77
2023-03-06T23:13:56.592Z,2.74
2023-03-06T23:16:25.526Z,2.72
2023-03-06T23:18:54.582Z,2.75
2023-03-06T23:21:24.452Z,2.72
2023-03-06T23:23:54.263Z,2.67
2023-03-06T23:26:26.002Z,2.66
2023-03-06T23:28:54.673Z,2.67
2023-03-06T23:31:28.692Z,2.66
2023-03-06T23:33:59.138Z,2.66
2023-03-06T23:36:27.538Z,2.64
2023-03-06T23:38:56.384Z,2.64
2023-03-06T23:41:26.617Z,2.61
2023-03-06T23:43:55.419Z,2.60
2023-03-06T23:46:23.800Z,2.61
2023-03-06T23:48:52.418Z,2.60
2023-03-06T23:51:22.671Z,2.57
2023-03-06T23:53:56.692Z,2.56
2023-03-06T23:56:27.946Z,2.56
2023-03-06T23:58:56.856Z,2.49
